Time;durP1;ratioP1;P1;durP2;ratioP2;P2;SDS_P1;SDS_P2;PMS_P1;PMS_P2;Temp;Humidity;BMP_temperature;BMP_pressure;BME280_temperature;BME280_humidity;BME280_pressure;Samples;Min_cycle;Max_cycle;Signal;HPM_P1;HPM_P2
2021/10/21 00:02:14;;;;;;;6.22;4.03;;;;;;;15.93;92.44;99036.59;5013679;28;20057;-80
2021/10/21 00:04:42;;;;;;;11.38;4.55;;;;;;;15.78;93.62;99039.06;5024218;28;20419;-82
2021/10/21 00:07:10;;;;;;;5.65;3.72;;;;;;;15.68;94.20;99041.84;5030806;28;20061;-80
2021/10/21 00:09:37;;;;;;;7.03;4.05;;;;;;;15.69;94.30;99019.63;4993699;28;20460;-82
2021/10/21 00:12:05;;;;;;;6.63;4.75;;;;;;;15.71;94.33;99016.81;4999361;28;20344;-83
2021/10/21 00:14:34;;;;;;;6.68;4.35;;;;;;;15.70;94.60;99013.31;5013648;28;20384;-81
2021/10/21 00:17:01;;;;;;;5.88;4.72;;;;;;;15.60;95.39;99003.81;5014286;28;20060;-79
2021/10/21 00:19:28;;;;;;;6.93;4.45;;;;;;;15.57;94.83;99010.28;4991407;28;20041;-80
2021/10/21 00:21:55;;;;;;;6.70;4.05;;;;;;;15.56;94.97;99000.66;4992900;28;20053;-79
2021/10/21 00:24:23;;;;;;;6.05;4.97;;;;;;;15.65;94.53;98994.41;5023874;28;20062;-78
2021/10/21 00:26:50;;;;;;;6.72;3.70;;;;;;;15.77;93.57;98988.81;5011502;28;20072;-77
2021/10/21 00:29:17;;;;;;;5.57;4.18;;;;;;;15.66;94.44;98995.25;5024148;28;20284;-77
2021/10/21 00:31:44;;;;;;;5.55;4.07;;;;;;;15.70;94.12;98984.13;5001916;28;20408;-86
2021/10/21 00:34:16;;;;;;;7.80;4.07;;;;;;;15.69;94.28;98993.09;5005234;28;20432;-81
2021/10/21 00:36:44;;;;;;;5.90;4.07;;;;;;;15.75;93.84;98996.91;5012308;28;20065;-79
2021/10/21 00:39:11;;;;;;;7.45;4.00;;;;;;;15.84;93.03;98989.78;5007571;28;20076;-80
2021/10/21 00:41:39;;;;;;;5.82;3.45;;;;;;;15.77;93.48;98980.84;4992847;28;20053;-79
2021/10/21 00:44:08;;;;;;;4.38;3.90;;;;;;;15.72;94.22;98981.34;4996961;28;20129;-79
2021/10/21 00:46:35;;;;;;;5.80;3.72;;;;;;;15.67;94.50;98973.03;5028933;28;20054;-83
2021/10/21 00:49:04;;;;;;;6.00;4.15;;;;;;;15.74;94.49;98966.06;5026531;28;20061;-88
2021/10/21 00:51:34;;;;;;;6.20;5.03;;;;;;;15.66;94.48;98950.13;4993886;28;20108;-81
2021/10/21 00:54:02;;;;;;;6.03;4.65;;;;;;;15.66;94.83;98940.34;5000176;28;20060;-80
2021/10/21 00:56:30;;;;;;;7.18;4.13;;;;;;;15.58;95.19;98950.94;4990043;28;20581;-80
2021/10/21 00:58:57;;;;;;;7.72;4.10;;;;;;;15.53;95.45;98947.09;4992879;28;20041;-80
2021/10/21 01:01:28;;;;;;;5.38;4.25;;;;;;;15.72;94.49;98946.03;5009526;28;20634;-76
2021/10/21 01:03:55;;;;;;;7.22;3.95;;;;;;;15.64;95.07;98942.34;5012582;28;20045;-82
2021/10/21 01:06:22;;;;;;;4.65;4.18;;;;;;;15.66;95.01;98929.75;5029913;28;20061;-79
2021/10/21 01:08:52;;;;;;;6.88;3.72;;;;;;;15.59;95.38;98917.28;5009374;28;20045;-81
2021/10/21 01:11:19;;;;;;;6.22;4.47;;;;;;;15.59;95.44;98901.38;5010495;28;20025;-84
2021/10/21 01:13:47;;;;;;;6.85;4.10;;;;;;;15.62;95.51;98901.03;5015053;28;20152;-81
2021/10/21 01:16:15;;;;;;;10.07;4.07;;;;;;;15.57;95.86;98896.22;5014718;28;20067;-78
2021/10/21 01:18:43;;;;;;;5.78;3.78;;;;;;;15.59;95.80;98886.28;5048748;28;20026;-85
2021/10/21 01:21:11;;;;;;;6.13;4.20;;;;;;;15.67;95.36;98881.03;5027223;28;20057;-81
2021/10/21 01:23:39;;;;;;;6.32;4.13;;;;;;;15.65;95.54;98872.38;5039682;28;20506;-82
2021/10/21 01:26:08;;;;;;;6.82;4.47;;;;;;;15.64;95.99;98870.72;5022781;28;20037;-83
2021/10/21 01:28:37;;;;;;;6.25;4.00;;;;;;;15.64;96.22;98854.81;4983080;28;20073;-76
2021/10/21 01:31:04;;;;;;;7.25;4.00;;;;;;;15.73;95.53;98860.13;5021582;28;20081;-80
2021/10/21 01:33:32;;;;;;;7.80;3.67;;;;;;;15.75;95.06;98845.69;5007519;28;20064;-82
2021/10/21 01:35:59;;;;;;;5.30;4.07;;;;;;;15.65;96.40;98847.69;4993753;28;20053;-80
2021/10/21 01:38:27;;;;;;;5.88;3.90;;;;;;;15.62;96.89;98840.03;4983266;28;20049;-80
2021/10/21 01:40:54;;;;;;;5.82;4.07;;;;;;;15.70;96.21;98824.13;5017334;28;20064;-81
2021/10/21 01:43:21;;;;;;;9.05;4.28;;;;;;;15.76;95.97;98812.03;4999657;28;20071;-78
2021/10/21 01:45:51;;;;;;;4.57;4.07;;;;;;;15.58;97.09;98812.16;4990852;28;20480;-83
2021/10/21 01:48:18;;;;;;;7.55;3.78;;;;;;;15.59;97.25;98790.81;5011930;28;20053;-81
2021/10/21 01:50:45;;;;;;;12.38;3.70;;;;;;;15.64;96.68;98774.41;5011878;28;20064;-78
2021/10/21 01:53:12;;;;;;;5.47;4.18;;;;;;;15.63;96.51;98762.13;5000917;28;20616;-86
2021/10/21 01:55:40;;;;;;;4.60;3.42;;;;;;;15.65;96.29;98758.31;4992138;28;20320;-78
2021/10/21 01:58:07;;;;;;;4.72;3.47;;;;;;;15.71;95.64;98732.94;5013429;28;20063;-77
2021/10/21 02:00:35;;;;;;;5.35;4.30;;;;;;;15.73;95.50;98732.78;5011670;28;20516;-81
2021/10/21 02:03:02;;;;;;;6.68;3.63;;;;;;;15.73;94.94;98722.19;4997274;28;20413;-83
2021/10/21 02:05:30;;;;;;;6.97;3.97;;;;;;;15.79;94.34;98718.84;4994312;28;20057;-76
2021/10/21 02:07:57;;;;;;;7.05;3.05;;;;;;;15.88;93.44;98704.53;5006342;28;20045;-81
2021/10/21 02:10:24;;;;;;;5.75;2.90;;;;;;;15.79;93.87;98702.91;5013624;28;20586;-79
2021/10/21 02:12:51;;;;;;;4.40;3.10;;;;;;;15.78;93.64;98683.53;5006916;28;20048;-78
2021/10/21 02:15:18;;;;;;;5.00;3.10;;;;;;;15.74;93.66;98699.94;5006717;28;20526;-74
2021/10/21 02:17:46;;;;;;;3.85;2.72;;;;;;;15.84;92.31;98679.34;4981210;28;20060;-80
2021/10/21 02:20:14;;;;;;;4.43;2.97;;;;;;;15.96;91.58;98683.28;5011412;28;20046;-80
2021/10/21 02:22:41;;;;;;;2.97;2.45;;;;;;;16.03;90.80;98670.16;5018662;28;20045;-77
2021/10/21 02:25:12;;;;;;;4.13;2.60;;;;;;;15.95;90.98;98666.53;5017100;28;20049;-77
2021/10/21 02:27:39;;;;;;;4.22;2.35;;;;;;;16.02;89.53;98661.34;5013858;28;20148;-78
2021/10/21 02:30:08;;;;;;;3.78;2.65;;;;;;;16.04;89.04;98635.50;5010752;28;20054;-78
2021/10/21 02:32:35;;;;;;;4.50;2.50;;;;;;;16.09;88.29;98634.97;5009923;28;20057;-80
2021/10/21 02:35:03;;;;;;;3.28;2.50;;;;;;;15.89;88.86;98631.91;4993981;28;20041;-76
2021/10/21 02:37:30;;;;;;;3.58;2.20;;;;;;;16.00;87.98;98607.63;5013897;28;20399;-77
2021/10/21 02:39:57;;;;;;;4.22;2.30;;;;;;;16.00;87.47;98581.09;5009388;28;20388;-81
2021/10/21 02:42:24;;;;;;;5.05;2.20;;;;;;;15.99;87.76;98590.06;5013578;28;20133;-77
2021/10/21 02:44:52;;;;;;;2.70;1.95;;;;;;;15.90;87.50;98601.72;4993183;28;20055;-79
2021/10/21 02:47:19;;;;;;;4.57;2.38;;;;;;;15.91;87.54;98587.47;5009148;28;20054;-82
2021/10/21 02:49:46;;;;;;;2.55;1.83;;;;;;;15.98;87.10;98579.59;5025274;28;20053;-81
2021/10/21 02:52:14;;;;;;;7.75;1.90;;;;;;;15.92;87.48;98562.56;5012950;28;20061;-79
2021/10/21 02:54:41;;;;;;;3.03;1.80;;;;;;;15.87;87.87;98570.22;5007209;28;20069;-78
2021/10/21 02:57:08;;;;;;;4.20;1.67;;;;;;;15.94;87.19;98561.41;4996561;28;20045;-78
2021/10/21 02:59:35;;;;;;;2.90;1.88;;;;;;;15.97;87.33;98562.03;5009249;28;20049;-80
2021/10/21 03:02:03;;;;;;;4.25;1.98;;;;;;;15.97;88.01;98580.63;4999495;28;20092;-79
2021/10/21 03:04:30;;;;;;;4.78;2.50;;;;;;;15.85;88.68;98575.72;4992254;28;20258;-81
2021/10/21 03:06:57;;;;;;;3.13;2.13;;;;;;;15.80;89.35;98575.38;5012637;28;20053;-78
2021/10/21 03:09:24;;;;;;;4.47;2.42;;;;;;;15.85;89.13;98570.41;5026617;28;20410;-84
2021/10/21 03:11:51;;;;;;;8.55;2.45;;;;;;;15.94;89.06;98563.22;5013063;28;20049;-78
2021/10/21 03:14:19;;;;;;;2.78;2.00;;;;;;;15.87;89.21;98549.81;5017201;28;20401;-79
2021/10/21 03:16:46;;;;;;;4.57;2.17;;;;;;;15.86;90.15;98548.19;4984475;28;20049;-79
2021/10/21 03:19:13;;;;;;;2.78;1.90;;;;;;;15.86;90.23;98537.56;5026579;28;20128;-82
2021/10/21 03:21:40;;;;;;;3.00;1.90;;;;;;;15.90;90.33;98533.56;5012420;28;20063;-79
2021/10/21 03:24:07;;;;;;;3.10;1.85;;;;;;;15.91;90.54;98515.81;5013068;28;20068;-85
2021/10/21 03:26:35;;;;;;;2.78;1.80;;;;;;;15.89;90.46;98515.97;5014960;28;20062;-78
2021/10/21 03:29:02;;;;;;;4.65;2.42;;;;;;;15.82;91.25;98498.28;5009974;28;20137;-81
2021/10/21 03:31:29;;;;;;;3.75;2.05;;;;;;;15.84;91.26;98488.31;5010285;28;20056;-76
2021/10/21 03:33:57;;;;;;;3.20;1.98;;;;;;;15.80;91.49;98479.88;5010368;28;20045;-86
2021/10/21 03:36:24;;;;;;;3.88;2.28;;;;;;;15.80;91.25;98482.53;5028782;28;20045;-80
2021/10/21 03:38:51;;;;;;;4.05;2.75;;;;;;;15.82;90.90;98493.81;5028512;28;20408;-79
2021/10/21 03:41:19;;;;;;;3.22;2.08;;;;;;;15.78;91.29;98491.69;4992812;28;20058;-83
2021/10/21 03:43:46;;;;;;;3.80;2.15;;;;;;;15.74;91.57;98491.19;5011701;28;20129;-78
2021/10/21 03:46:13;;;;;;;3.58;2.08;;;;;;;15.74;91.08;98477.13;4993582;28;20054;-78
2021/10/21 03:48:40;;;;;;;3.35;2.28;;;;;;;15.81;90.13;98473.59;5027847;28;20100;-79
2021/10/21 03:51:07;;;;;;;2.30;1.77;;;;;;;15.83;89.67;98473.41;5024775;28;20068;-83
2021/10/21 03:53:34;;;;;;;4.05;1.92;;;;;;;15.92;88.32;98459.91;5027997;28;20408;-81
2021/10/21 03:56:02;;;;;;;4.35;1.92;;;;;;;15.91;87.23;98460.09;5026168;28;20060;-79
2021/10/21 03:58:29;;;;;;;2.53;1.85;;;;;;;15.78;88.17;98436.78;4998948;28;20168;-84
2021/10/21 04:00:57;;;;;;;4.10;1.83;;;;;;;15.82;86.80;98426.66;4992843;28;20544;-79
2021/10/21 04:03:24;;;;;;;2.55;1.73;;;;;;;15.95;84.96;98425.06;5004150;28;20046;-78
2021/10/21 04:05:51;;;;;;;1.48;1.27;;;;;;;15.85;84.75;98419.19;5009612;28;20080;-79
2021/10/21 04:08:18;;;;;;;3.40;1.48;;;;;;;15.79;84.19;98417.22;5027324;28;20053;-80
2021/10/21 04:10:45;;;;;;;4.50;1.27;;;;;;;15.89;82.81;98419.63;5026469;28;20045;-79
2021/10/21 04:13:13;;;;;;;1.80;1.40;;;;;;;16.02;80.81;98411.88;4993634;28;20058;-84
2021/10/21 04:15:41;;;;;;;2.90;1.60;;;;;;;16.06;79.78;98426.44;4992596;28;20124;-78
2021/10/21 04:18:08;;;;;;;2.10;1.27;;;;;;;15.94;80.58;98452.59;5007799;28;20396;-80
2021/10/21 04:20:35;;;;;;;5.03;1.40;;;;;;;15.89;83.20;98464.72;5008283;28;20041;-78
2021/10/21 04:23:03;;;;;;;4.15;1.77;;;;;;;15.53;86.58;98417.53;5028567;28;20140;-81
2021/10/21 04:25:30;;;;;;;2.92;1.50;;;;;;;15.31;88.80;98375.91;4990829;28;20041;-76
2021/10/21 04:27:57;;;;;;;2.95;1.60;;;;;;;14.56;99.46;98429.41;5015598;28;20042;-80
2021/10/21 04:30:24;;;;;;;3.17;1.70;;;;;;;14.38;96.95;98433.06;5010576;28;20480;-78
2021/10/21 04:32:51;;;;;;;4.25;1.33;;;;;;;14.21;100.00;98420.84;5015756;28;20140;-80
2021/10/21 04:35:19;;;;;;;5.65;1.50;;;;;;;14.13;99.90;98399.66;5009167;28;20054;-79
2021/10/21 04:37:46;;;;;;;5.53;1.50;;;;;;;14.11;100.00;98386.63;5033692;28;20067;-80
2021/10/21 04:40:13;;;;;;;2.90;1.75;;;;;;;13.88;100.00;98398.88;5007139;28;20065;-81
2021/10/21 04:42:40;;;;;;;1.00;0.90;;;;;;;13.94;100.00;98340.81;5011400;28;20049;-77
2021/10/21 04:45:09;;;;;;;6.50;1.48;;;;;;;13.92;100.00;98292.56;4998577;28;20037;-79
2021/10/21 04:47:36;;;;;;;2.03;1.38;;;;;;;13.90;100.00;98302.47;5006574;28;20050;-84
2021/10/21 04:50:04;;;;;;;4.88;1.70;;;;;;;13.76;100.00;98312.94;5007963;28;20132;-78
2021/10/21 04:52:31;;;;;;;3.65;1.15;;;;;;;13.75;100.00;98308.63;5012351;28;20393;-81
2021/10/21 04:54:58;;;;;;;2.58;1.35;;;;;;;13.77;100.00;98320.69;5005149;28;20523;-80
2021/10/21 04:57:26;;;;;;;6.35;1.38;;;;;;;13.76;100.00;98319.03;5011233;28;20517;-82
2021/10/21 04:59:53;;;;;;;2.47;1.35;;;;;;;13.79;100.00;98299.38;4969667;28;20041;-78
2021/10/21 05:02:20;;;;;;;2.42;1.30;;;;;;;13.82;100.00;98214.41;5011865;28;20507;-83
2021/10/21 05:04:47;;;;;;;2.45;1.10;;;;;;;13.85;100.00;98182.34;5011098;28;20056;-81
2021/10/21 05:07:14;;;;;;;4.25;1.50;;;;;;;13.91;100.00;98185.13;5005273;28;20049;-79
2021/10/21 05:09:42;;;;;;;5.57;1.35;;;;;;;13.88;100.00;98174.06;5011100;28;20049;-81
2021/10/21 05:12:09;;;;;;;3.90;1.33;;;;;;;13.88;100.00;98189.94;4992526;28;20492;-79
2021/10/21 05:14:36;;;;;;;3.33;1.23;;;;;;;13.94;100.00;98190.06;5013925;28;20041;-79
2021/10/21 05:17:03;;;;;;;2.20;1.10;;;;;;;13.97;100.00;98190.72;5028841;28;20105;-82
2021/10/21 05:19:30;;;;;;;9.55;1.92;;;;;;;14.01;100.00;98176.16;4995541;28;20474;-82
2021/10/21 05:21:57;;;;;;;1.30;0.90;;;;;;;13.99;100.00;98167.56;4994811;28;20049;-79
2021/10/21 05:24:24;;;;;;;2.88;1.00;;;;;;;13.93;100.00;98166.44;5017166;28;20048;-79
2021/10/21 05:26:51;;;;;;;1.85;1.20;;;;;;;14.07;100.00;98164.88;4998499;28;20056;-80
2021/10/21 05:29:20;;;;;;;5.68;1.45;;;;;;;14.07;100.00;98175.47;5010330;28;20392;-81
2021/10/21 05:31:47;;;;;;;3.35;1.25;;;;;;;14.07;100.00;98176.28;5014425;28;20499;-81
2021/10/21 05:34:15;;;;;;;4.00;0.90;;;;;;;14.14;100.00;98184.38;5026803;28;20117;-82
2021/10/21 05:36:42;;;;;;;1.25;0.95;;;;;;;14.22;99.92;98200.19;5002944;28;20443;-78
2021/10/21 05:39:10;;;;;;;4.13;1.27;;;;;;;14.20;100.00;98188.97;5017587;28;20064;-81
2021/10/21 05:41:37;;;;;;;1.60;0.95;;;;;;;14.14;100.00;98189.66;5022159;28;20049;-79
2021/10/21 05:44:04;;;;;;;2.00;1.15;;;;;;;14.21;100.00;98205.66;5011470;28;20349;-78
2021/10/21 05:46:31;;;;;;;4.03;1.98;;;;;;;14.28;100.00;98196.06;4982394;28;20433;-81
2021/10/21 05:48:59;;;;;;;1.67;1.23;;;;;;;14.28;100.00;98206.63;4997867;28;20125;-82
2021/10/21 05:51:26;;;;;;;2.83;1.15;;;;;;;14.35;99.94;98199.63;5013838;28;20060;-81
2021/10/21 05:53:55;;;;;;;5.03;1.35;;;;;;;14.30;100.00;98194.03;5017127;28;20133;-78
2021/10/21 05:56:22;;;;;;;3.17;1.48;;;;;;;14.44;98.91;98177.41;5012978;28;20057;-82
2021/10/21 05:58:49;;;;;;;2.03;1.20;;;;;;;14.52;98.01;98182.69;4998643;28;20041;-79
2021/10/21 06:01:16;;;;;;;2.65;1.30;;;;;;;14.53;98.36;98188.81;5014059;28;20061;-82
2021/10/21 06:03:48;;;;;;;3.90;1.40;;;;;;;14.61;96.86;98179.00;5013457;28;20041;-78
2021/10/21 06:06:15;;;;;;;9.45;1.60;;;;;;;14.67;95.77;98166.88;5043302;28;20357;-82
2021/10/21 06:08:46;;;;;;;4.70;1.17;;;;;;;14.74;95.35;98170.47;5028693;28;20057;-79
2021/10/21 06:11:13;;;;;;;2.25;1.00;;;;;;;14.81;93.31;98154.69;5012834;28;20116;-83
2021/10/21 06:13:42;;;;;;;3.65;1.30;;;;;;;14.79;93.51;98133.69;5013916;28;20041;-88
2021/10/21 06:16:14;;;;;;;5.82;1.05;;;;;;;14.91;91.86;98142.84;5005433;28;20069;-87
2021/10/21 06:18:43;;;;;;;3.92;1.15;;;;;;;15.02;89.91;98146.91;5006538;28;20056;-79
2021/10/21 06:21:22;;;;;;;2.97;1.30;;;;;;;15.08;89.22;98148.00;4994679;28;20104;-81
2021/10/21 06:23:50;;;;;;;4.38;1.40;;;;;;;15.00;89.52;98148.91;5012931;28;20053;-78
2021/10/21 06:26:24;;;;;;;2.88;1.27;;;;;;;15.07;89.10;98120.69;5012045;28;20050;-81
2021/10/21 06:28:52;;;;;;;6.43;1.50;;;;;;;15.16;87.55;98127.53;5030097;28;20061;-79
2021/10/21 06:31:23;;;;;;;1.83;1.05;;;;;;;15.11;87.86;98129.09;5013075;28;20563;-83
2021/10/21 06:33:54;;;;;;;4.15;1.10;;;;;;;15.16;86.71;98126.72;5014680;28;20049;-82
2021/10/21 06:36:29;;;;;;;1.70;1.00;;;;;;;15.22;85.99;98135.78;5017732;28;20583;-87
2021/10/21 06:39:04;;;;;;;5.78;1.20;;;;;;;15.16;87.00;98140.81;4981939;28;20061;-83
2021/10/21 06:41:32;;;;;;;1.40;1.08;;;;;;;15.18;85.58;98143.28;5000053;28;20050;-81
2021/10/21 06:44:05;;;;;;;4.45;0.90;;;;;;;15.25;83.70;98133.59;4981928;28;20041;-80
2021/10/21 06:46:37;;;;;;;1.73;1.13;;;;;;;15.29;83.88;98126.94;5024093;28;20072;-83
2021/10/21 06:49:07;;;;;;;1.50;0.85;;;;;;;15.30;82.51;98128.56;5013393;28;20041;-86
2021/10/21 06:51:35;;;;;;;3.00;1.10;;;;;;;15.45;81.35;98144.50;5017843;28;20129;-84
2021/10/21 06:54:02;;;;;;;5.05;1.15;;;;;;;15.55;80.07;98157.50;5012426;28;20049;-85
2021/10/21 06:56:34;;;;;;;11.63;1.27;;;;;;;15.62;77.74;98137.19;5018618;28;20045;-77
2021/10/21 06:59:06;;;;;;;6.32;1.33;;;;;;;15.62;76.90;98142.47;5013092;28;20053;-84
2021/10/21 07:01:39;;;;;;;1.80;0.60;;;;;;;15.56;75.82;98151.19;5033287;28;20046;-85
2021/10/21 07:04:09;;;;;;;5.95;1.05;;;;;;;15.62;75.48;98153.09;5009685;28;20124;-88
2021/10/21 07:06:48;;;;;;;;;;;;;;;15.60;76.01;98163.88;4993147;28;20576;-83
2021/10/21 07:09:19;;;;;;;6.93;1.42;;;;;;;15.28;77.64;98166.88;5003263;28;20310;-81
2021/10/21 07:11:46;;;;;;;1.60;0.90;;;;;;;15.38;77.13;98175.38;5013627;28;20442;-81
2021/10/21 07:14:17;;;;;;;2.50;0.98;;;;;;;15.29;76.45;98142.84;4993183;28;20033;-85
2021/10/21 07:16:47;;;;;;;6.40;1.30;;;;;;;15.25;76.95;98143.38;5033001;28;20163;-83
2021/10/21 07:19:20;;;;;;;1.73;0.90;;;;;;;15.13;76.25;98145.63;5006646;28;20053;-78
2021/10/21 07:21:52;;;;;;;8.23;1.77;;;;;;;15.16;75.14;98153.22;5014618;28;20061;-81
2021/10/21 07:24:20;;;;;;;6.18;2.08;;;;;;;15.06;73.65;98172.03;5023365;28;20157;-81
2021/10/21 07:26:52;;;;;;;4.53;1.15;;;;;;;14.98;73.52;98171.28;5014115;28;20065;-79
2021/10/21 07:29:21;;;;;;;11.98;1.48;;;;;;;14.88;71.14;98155.63;5011409;28;20555;-85
2021/10/21 07:31:51;;;;;;;8.35;1.48;;;;;;;14.71;70.49;98162.06;5013204;28;20060;-79
2021/10/21 07:34:19;;;;;;;11.85;1.50;;;;;;;15.93;65.74;98193.53;5020579;28;20084;-77
2021/10/21 07:36:47;;;;;;;31.60;2.60;;;;;;;17.92;56.36;98189.31;5040950;28;20113;-78
2021/10/21 07:39:16;;;;;;;12.35;1.20;;;;;;;19.73;50.55;98169.78;5028192;28;20049;-87
2021/10/21 07:41:44;;;;;;;8.95;1.13;;;;;;;20.53;47.95;98187.38;5040094;28;20104;-82
2021/10/21 07:44:12;;;;;;;14.90;1.60;;;;;;;20.31;46.61;98182.34;5009546;28;20065;-82
2021/10/21 07:46:49;;;;;;;7.15;1.17;;;;;;;20.93;45.35;98182.59;5010057;28;20373;-80
2021/10/21 07:49:17;;;;;;;18.20;2.50;;;;;;;19.76;47.41;98194.41;5016049;28;20041;-78
2021/10/21 07:51:44;;;;;;;16.77;1.48;;;;;;;21.62;42.99;98178.19;4996760;28;20067;-79
2021/10/21 07:54:11;;;;;;;5.25;1.00;;;;;;;20.16;45.16;98201.28;5027252;28;20137;-82
2021/10/21 07:56:38;;;;;;;14.88;1.52;;;;;;;20.23;45.50;98195.94;5018908;28;20129;-78
2021/10/21 07:59:06;;;;;;;13.05;1.60;;;;;;;20.72;44.46;98207.84;5029271;28;20079;-86
2021/10/21 08:01:33;;;;;;;14.73;1.95;;;;;;;21.15;42.70;98191.91;4984332;28;20127;-80
2021/10/21 08:04:00;;;;;;;7.35;1.08;;;;;;;20.51;43.19;98202.81;5010452;28;20063;-86
2021/10/21 08:06:33;;;;;;;17.13;1.42;;;;;;;21.05;42.88;98191.59;5000080;28;20051;-80
2021/10/21 08:09:03;;;;;;;6.00;1.58;;;;;;;21.95;39.74;98181.31;4983328;28;20128;-82
2021/10/21 08:11:30;;;;;;;10.23;1.33;;;;;;;21.26;41.88;98190.41;4997945;28;20273;-82
2021/10/21 08:13:57;;;;;;;9.05;1.13;;;;;;;21.60;40.81;98170.34;5009490;28;20054;-86
2021/10/21 08:16:25;;;;;;;8.18;1.25;;;;;;;21.95;40.08;98189.34;5001400;28;20500;-85
2021/10/21 08:18:52;;;;;;;13.68;1.45;;;;;;;21.43;41.18;98198.72;5014819;28;20052;-78
2021/10/21 08:21:19;;;;;;;5.03;1.00;;;;;;;22.66;38.90;98193.25;5011954;28;20053;-76
2021/10/21 08:23:50;;;;;;;10.43;1.00;;;;;;;23.09;37.11;98175.31;4995363;28;20045;-81
2021/10/21 08:26:17;;;;;;;14.70;1.65;;;;;;;21.56;40.24;98187.06;5012544;28;20057;-80
2021/10/21 08:28:47;;;;;;;7.72;1.05;;;;;;;22.43;39.17;98195.84;5000873;28;20053;-81
2021/10/21 08:31:15;;;;;;;8.45;1.48;;;;;;;20.61;42.36;98179.13;4984285;28;20073;-77
2021/10/21 08:33:43;;;;;;;6.55;0.90;;;;;;;19.56;43.53;98187.22;5015370;28;20304;-83
2021/10/21 08:36:14;;;;;;;19.13;0.98;;;;;;;18.13;47.47;98164.44;5003987;28;20050;-83
2021/10/21 08:38:42;;;;;;;3.85;0.93;;;;;;;17.46;49.83;98172.03;5014758;28;20071;-82
2021/10/21 08:41:10;;;;;;;8.35;1.10;;;;;;;16.68;52.54;98160.50;5013790;28;20057;-84
2021/10/21 08:43:38;;;;;;;6.85;1.38;;;;;;;16.37;52.86;98168.78;5032032;28;20125;-80
2021/10/21 08:46:07;;;;;;;12.27;1.20;;;;;;;16.59;53.54;98172.28;4985180;28;20069;-79
2021/10/21 08:48:38;;;;;;;6.68;0.80;;;;;;;16.24;53.97;98168.63;4988900;28;20054;-76
2021/10/21 08:51:11;;;;;;;8.40;1.67;;;;;;;15.99;54.55;98154.84;4981970;28;20057;-79
2021/10/21 08:53:41;;;;;;;18.42;1.00;;;;;;;16.01;54.04;98165.28;5016686;28;20056;-81
2021/10/21 08:56:10;;;;;;;9.48;1.10;;;;;;;15.93;54.34;98129.03;5001203;28;20429;-81
2021/10/21 08:58:41;;;;;;;10.40;1.48;;;;;;;16.14;53.70;98165.44;5017408;28;20419;-83
2021/10/21 09:01:15;;;;;;;9.15;1.67;;;;;;;16.55;53.46;98171.00;5017412;28;20074;-83
2021/10/21 09:03:58;;;;;;;10.52;1.23;;;;;;;16.20;54.28;98181.44;5029153;28;20145;-82
2021/10/21 09:09:29;;;;;;;9.77;0.75;;;;;;;16.07;54.55;98168.00;5018294;28;20132;-83
2021/10/21 09:12:17;;;;;;;11.38;1.02;;;;;;;15.76;55.56;98175.34;5039288;28;20507;-82
2021/10/21 09:14:50;;;;;;;8.95;0.70;;;;;;;15.62;56.26;98158.41;5016951;28;20046;-78
2021/10/21 09:17:26;;;;;;;9.00;1.13;;;;;;;15.65;56.38;98171.31;5025400;28;20059;-88
2021/10/21 09:19:54;;;;;;;10.60;1.20;;;;;;;15.56;56.73;98172.38;5013949;28;20049;-80
2021/10/21 09:22:30;;;;;;;12.82;1.40;;;;;;;15.28;57.93;98167.69;5017322;28;20056;-81
2021/10/21 09:25:07;;;;;;;9.13;1.00;;;;;;;15.31;58.01;98158.53;5013363;28;20055;-82
2021/10/21 09:27:36;;;;;;;12.02;1.67;;;;;;;15.26;58.49;98187.44;5016479;28;20077;-79
2021/10/21 09:30:07;;;;;;;13.77;1.10;;;;;;;15.35;58.44;98163.31;5002484;28;20060;-81
2021/10/21 09:32:36;;;;;;;8.70;1.23;;;;;;;15.17;59.67;98184.03;5017551;28;20132;-82
2021/10/21 09:35:08;;;;;;;10.27;0.73;;;;;;;15.34;58.44;98176.75;5025558;28;20038;-90
2021/10/21 09:37:43;;;;;;;8.65;0.93;;;;;;;15.26;59.50;98182.13;5016577;28;20077;-89
2021/10/21 09:40:16;;;;;;;10.02;1.30;;;;;;;14.97;61.79;98174.94;5015782;28;20480;-80
2021/10/21 09:42:54;;;;;;;9.02;1.88;;;;;;;14.94;61.93;98178.75;5032859;28;20053;-86
2021/10/21 09:45:38;;;;;;;;;;;;;;;15.07;60.85;98167.56;5003082;28;20063;-82
2021/10/21 09:48:08;;;;;;;11.73;1.42;;;;;;;15.17;60.40;98184.88;4997686;28;19921;-90
2021/10/21 09:50:39;;;;;;;10.57;1.40;;;;;;;15.33;59.18;98177.75;5016184;28;20054;-77
2021/10/21 09:53:29;;;;;;;6.88;1.02;;;;;;;15.55;58.46;98173.41;4999769;28;20140;-85
2021/10/21 09:56:08;;;;;;;6.38;1.10;;;;;;;15.49;57.97;98180.25;5009773;28;20047;-87
2021/10/21 09:58:37;;;;;;;14.43;1.05;;;;;;;15.44;57.95;98190.56;5021849;28;20045;-84
2021/10/21 10:01:13;;;;;;;17.95;0.98;;;;;;;15.18;59.24;98194.47;5008039;28;20075;-82
2021/10/21 10:03:47;;;;;;;13.95;1.38;;;;;;;15.07;58.80;98180.81;5000274;28;20108;-83
2021/10/21 10:06:17;;;;;;;7.03;1.05;;;;;;;15.34;58.50;98203.25;5036068;28;20125;-80
2021/10/21 10:08:50;;;;;;;10.88;1.08;;;;;;;15.31;59.56;98207.09;5023791;28;20061;-79
2021/10/21 10:11:19;;;;;;;13.27;1.13;;;;;;;15.14;60.33;98202.94;4996994;28;20056;-80
2021/10/21 10:13:51;;;;;;;11.93;1.23;;;;;;;14.94;60.04;98202.59;4992839;28;20065;-82
2021/10/21 10:16:22;;;;;;;13.48;1.30;;;;;;;15.09;59.90;98215.91;4999050;28;20053;-82
2021/10/21 10:18:52;;;;;;;14.57;2.22;;;;;;;15.15;59.74;98216.00;4997192;28;20080;-86
2021/10/21 10:21:42;;;;;;;16.63;1.02;;;;;;;14.97;61.55;98223.44;4997658;28;20496;-86
2021/10/21 10:24:13;;;;;;;21.83;1.20;;;;;;;14.85;63.53;98223.03;5035221;28;20053;-84
2021/10/21 10:26:57;;;;;;;19.30;1.45;;;;;;;14.84;63.49;98231.97;5002681;28;20544;-86
2021/10/21 10:29:30;;;;;;;17.92;1.63;;;;;;;14.89;63.48;98232.25;4978813;28;20103;-85
2021/10/21 10:32:05;;;;;;;20.00;1.63;;;;;;;14.90;62.91;98241.03;5014197;28;20050;-83
2021/10/21 10:34:36;;;;;;;14.13;1.30;;;;;;;14.65;65.62;98282.75;4995431;28;20042;-84
2021/10/21 10:37:17;;;;;;;19.52;1.30;;;;;;;14.92;64.74;98252.28;5016118;28;20548;-84
2021/10/21 10:39:51;;;;;;;11.70;1.00;;;;;;;15.11;64.31;98266.91;5017792;28;20052;-84
2021/10/21 10:42:44;;;;;;;19.88;1.45;;;;;;;15.04;65.26;98264.13;5000207;28;20081;-82
2021/10/21 10:45:42;;;;;;;11.07;0.90;;;;;;;14.89;65.82;98290.53;5024257;28;20393;-83
2021/10/21 10:48:10;;;;;;;14.35;1.20;;;;;;;14.86;65.76;98305.94;5018761;28;20124;-83
2021/10/21 10:50:43;;;;;;;13.07;1.13;;;;;;;14.87;66.36;98305.81;5016588;28;20037;-84
2021/10/21 10:53:11;;;;;;;12.10;1.50;;;;;;;14.63;71.14;98329.75;5014410;28;20469;-81
2021/10/21 10:55:41;;;;;;;10.20;1.60;;;;;;;13.98;75.68;98369.59;4995448;28;20064;-85
2021/10/21 10:58:16;;;;;;;13.85;1.20;;;;;;;12.94;86.21;98402.66;4985863;28;20081;-87
2021/10/21 11:00:57;;;;;;;9.90;1.30;;;;;;;12.01;98.42;98452.56;4992157;28;20049;-82
2021/10/21 11:03:31;;;;;;;5.18;1.27;;;;;;;11.71;100.00;98476.63;5018855;28;20053;-81
2021/10/21 11:06:02;;;;;;;7.10;1.60;;;;;;;11.90;100.00;98492.34;5012526;28;20148;-89
2021/10/21 11:08:54;;;;;;;4.95;0.80;;;;;;;11.80;98.53;98492.41;5014532;28;20438;-84
2021/10/21 11:11:40;;;;;;;2.55;0.68;;;;;;;12.09;97.32;98510.66;4993671;28;20060;-82
2021/10/21 11:14:16;;;;;;;3.70;0.70;;;;;;;12.08;97.38;98521.38;5026504;28;20041;-89
2021/10/21 11:16:48;;;;;;;7.78;0.60;;;;;;;12.05;96.34;98538.31;4981547;28;20049;-78
2021/10/21 11:19:39;;;;;;;9.85;0.90;;;;;;;11.96;95.38;98562.13;4995663;28;20052;-83
2021/10/21 11:22:07;;;;;;;6.00;0.55;;;;;;;11.82;93.18;98560.78;4997402;28;20125;-80
2021/10/21 11:24:43;;;;;;;1.65;0.40;;;;;;;11.76;93.40;98571.94;4976387;28;20064;-78
2021/10/21 11:27:10;;;;;;;3.45;0.85;;;;;;;11.79;89.58;98592.72;5013074;28;20112;-86
2021/10/21 11:29:39;;;;;;;4.97;0.70;;;;;;;11.99;88.23;98604.84;5023071;28;20112;-78
2021/10/21 11:32:08;;;;;;;6.20;0.60;;;;;;;12.07;87.83;98614.66;4994921;28;20128;-79
2021/10/21 11:34:36;;;;;;;2.92;1.20;;;;;;;11.87;89.31;98642.94;4993074;28;20052;-84
2021/10/21 11:37:04;;;;;;;1.13;0.70;;;;;;;11.71;91.42;98666.41;4994701;28;20056;-82
2021/10/21 11:39:33;;;;;;;9.20;1.08;;;;;;;11.59;92.66;98671.06;5009928;28;20095;-83
2021/10/21 11:42:11;;;;;;;4.13;0.52;;;;;;;11.58;91.28;98691.31;4975463;28;20059;-78
2021/10/21 11:44:39;;;;;;;0.98;0.50;;;;;;;11.53;93.28;98701.47;5008156;28;20034;-84
2021/10/21 11:47:07;;;;;;;6.28;0.90;;;;;;;11.06;98.80;98725.09;4993672;28;20311;-83